Time;durP1;ratioP1;P1;durP2;ratioP2;P2;SDS_P1;SDS_P2;PMS_P1;PMS_P2;Temp;Humidity;BMP_temperature;BMP_pressure;BME280_temperature;BME280_humidity;BME280_pressure;Samples;Min_cycle;Max_cycle;Signal;HPM_P1;HPM_P2
2023/09/30 00:01:44;;;;;;;1.85;1.35;;;11.40;99.90;;;;;;4969092;28;20043;-60
2023/09/30 00:04:10;;;;;;;4.93;1.10;;;11.40;99.90;;;;;;4968473;28;20070;-60
2023/09/30 00:06:36;;;;;;;2.00;1.10;;;11.40;99.90;;;;;;4968888;28;20047;-60
2023/09/30 00:09:03;;;;;;;4.05;1.08;;;11.40;99.90;;;;;;4970197;28;20065;-60
2023/09/30 00:11:29;;;;;;;3.58;0.93;;;11.40;99.90;;;;;;4952215;28;20039;-60
2023/09/30 00:13:54;;;;;;;1.25;0.43;;;11.40;99.90;;;;;;4970192;28;20092;-60
2023/09/30 00:16:20;;;;;;;4.00;0.93;;;11.40;99.90;;;;;;4968819;28;20077;-60
2023/09/30 00:18:46;;;;;;;3.67;0.70;;;11.40;99.90;;;;;;4968474;28;20058;-60
2023/09/30 00:21:12;;;;;;;1.25;0.82;;;11.50;99.90;;;;;;4970149;28;20060;-60
2023/09/30 00:23:38;;;;;;;2.58;0.82;;;11.50;99.90;;;;;;4969871;28;20122;-60
2023/09/30 00:26:05;;;;;;;3.58;0.88;;;11.60;99.90;;;;;;4969429;28;20172;-60
2023/09/30 00:28:30;;;;;;;4.38;0.80;;;11.60;99.90;;;;;;4970012;28;20046;-60
2023/09/30 00:30:56;;;;;;;1.55;0.77;;;11.60;99.90;;;;;;4968082;28;20398;-60
2023/09/30 00:33:22;;;;;;;4.35;0.57;;;11.60;99.90;;;;;;4968887;28;20069;-60
2023/09/30 00:35:48;;;;;;;2.70;0.88;;;11.60;99.90;;;;;;4969905;28;20043;-60
2023/09/30 00:38:14;;;;;;;1.98;0.80;;;11.70;99.90;;;;;;4967564;28;20054;-60
2023/09/30 00:40:49;;;;;;;2.83;0.77;;;11.60;99.90;;;;;;4968765;28;20042;-60
2023/09/30 00:43:21;;;;;;;2.17;0.95;;;11.70;99.90;;;;;;4969242;28;20502;-60
2023/09/30 00:45:49;;;;;;;5.28;1.10;;;11.70;99.90;;;;;;4968343;28;20391;-60
2023/09/30 00:48:16;;;;;;;4.40;1.52;;;11.70;99.90;;;;;;4968309;28;20137;-60
2023/09/30 00:50:42;;;;;;;2.45;0.80;;;11.80;99.90;;;;;;4956385;28;20102;-60
2023/09/30 00:53:08;;;;;;;1.80;0.90;;;11.80;99.90;;;;;;4962999;28;20072;-60
2023/09/30 00:55:34;;;;;;;1.83;0.43;;;11.80;99.90;;;;;;4968125;28;20046;-60
2023/09/30 00:58:00;;;;;;;5.13;1.20;;;11.90;99.90;;;;;;4968167;28;20130;-60
2023/09/30 01:00:25;;;;;;;3.75;1.13;;;11.90;99.90;;;;;;4967577;28;20121;-60
2023/09/30 01:02:53;;;;;;;4.85;1.55;;;12.00;99.90;;;;;;4969558;28;20035;-60
2023/09/30 01:05:19;;;;;;;6.35;0.90;;;12.00;99.90;;;;;;4967751;28;20483;-60
2023/09/30 01:07:45;;;;;;;1.70;0.73;;;12.00;99.90;;;;;;4969002;28;20047;-60
2023/09/30 01:10:11;;;;;;;4.90;0.80;;;12.00;99.90;;;;;;4953186;28;20044;-60
2023/09/30 01:12:37;;;;;;;4.35;0.80;;;12.00;99.90;;;;;;4948732;29;20089;-60
2023/09/30 01:15:06;;;;;;;1.50;0.60;;;11.90;99.90;;;;;;4948458;29;20096;-60
2023/09/30 01:17:32;;;;;;;2.47;1.00;;;12.00;99.90;;;;;;4948766;28;20048;-60
2023/09/30 01:20:04;;;;;;;4.72;1.02;;;11.90;99.90;;;;;;4932229;28;20058;-60
2023/09/30 01:22:30;;;;;;;2.00;1.08;;;11.90;99.90;;;;;;4950121;28;20082;-60
2023/09/30 01:24:56;;;;;;;0.93;0.63;;;11.90;99.90;;;;;;4948704;29;20079;-60
2023/09/30 01:27:22;;;;;;;6.72;1.55;;;11.90;99.90;;;;;;4932342;29;20106;-60
2023/09/30 01:29:49;;;;;;;2.45;0.95;;;11.90;99.90;;;;;;4949866;28;20468;-60
2023/09/30 01:32:15;;;;;;;5.60;0.80;;;11.90;99.90;;;;;;4948505;29;20047;-60
2023/09/30 01:34:41;;;;;;;4.28;1.30;;;11.90;99.90;;;;;;4947820;29;20066;-60
2023/09/30 01:37:07;;;;;;;2.20;0.70;;;12.00;99.90;;;;;;4949950;28;20043;-60
2023/09/30 01:39:33;;;;;;;2.78;0.68;;;12.00;99.90;;;;;;4961934;28;20055;-60
2023/09/30 01:41:59;;;;;;;5.55;0.80;;;12.00;99.90;;;;;;4967186;28;20130;-60
2023/09/30 01:44:25;;;;;;;4.65;0.90;;;11.90;99.90;;;;;;4969083;28;20387;-60
2023/09/30 01:46:51;;;;;;;3.03;0.55;;;12.00;99.90;;;;;;4955683;28;20050;-60
2023/09/30 01:49:23;;;;;;;4.72;0.90;;;12.00;99.90;;;;;;4947376;28;20043;-60
2023/09/30 01:51:49;;;;;;;1.63;0.90;;;12.00;99.90;;;;;;4951351;28;20046;-60
2023/09/30 01:54:15;;;;;;;2.92;0.73;;;11.90;99.90;;;;;;4958259;28;20046;-60
2023/09/30 01:56:41;;;;;;;7.75;1.15;;;11.90;99.90;;;;;;4987447;28;20103;-60
2023/09/30 01:59:06;;;;;;;2.95;0.88;;;12.00;99.90;;;;;;4987858;28;20035;-60
2023/09/30 02:01:32;;;;;;;8.25;1.45;;;11.90;99.90;;;;;;4988224;28;20082;-60
2023/09/30 02:03:58;;;;;;;3.17;1.58;;;11.90;99.90;;;;;;4987369;28;20042;-60
2023/09/30 02:06:24;;;;;;;3.35;0.93;;;11.90;99.90;;;;;;4972049;28;20410;-60
2023/09/30 02:08:50;;;;;;;1.63;0.82;;;11.90;99.90;;;;;;4968178;28;20059;-60
2023/09/30 02:11:17;;;;;;;3.50;1.15;;;12.00;99.90;;;;;;4967270;28;20046;-60
2023/09/30 02:13:44;;;;;;;3.47;1.25;;;11.90;99.90;;;;;;4968498;28;20050;-60
2023/09/30 02:16:14;;;;;;;2.40;1.15;;;12.00;99.90;;;;;;4968859;28;20089;-60
2023/09/30 02:18:42;;;;;;;3.28;1.45;;;11.90;99.90;;;;;;4970614;28;20047;-59
2023/09/30 02:21:10;;;;;;;5.05;2.08;;;11.90;99.90;;;;;;4972036;28;20075;-60
2023/09/30 02:23:36;;;;;;;6.90;2.03;;;12.00;99.90;;;;;;4969849;28;20047;-60
2023/09/30 02:26:03;;;;;;;4.97;1.50;;;11.90;99.90;;;;;;4970515;28;20039;-60
2023/09/30 02:28:32;;;;;;;5.10;1.45;;;11.90;99.90;;;;;;4970393;28;20034;-60
2023/09/30 02:30:59;;;;;;;7.67;1.57;;;12.00;99.90;;;;;;4969950;28;20055;-60
2023/09/30 02:33:25;;;;;;;1.67;0.75;;;12.00;99.90;;;;;;4971717;28;20046;-60
2023/09/30 02:35:51;;;;;;;7.45;2.15;;;12.00;99.90;;;;;;4970221;28;20058;-60
2023/09/30 02:38:18;;;;;;;3.65;1.30;;;11.90;99.90;;;;;;4970913;28;20035;-60
2023/09/30 02:40:46;;;;;;;3.78;1.35;;;12.00;99.90;;;;;;4970551;28;20070;-60
2023/09/30 02:43:13;;;;;;;4.35;1.40;;;12.00;99.90;;;;;;4958097;28;20089;-59
2023/09/30 02:45:39;;;;;;;5.45;1.60;;;12.00;99.90;;;;;;4952530;28;20054;-60
2023/09/30 02:48:06;;;;;;;2.28;1.08;;;12.00;99.90;;;;;;4971478;28;20043;-60
2023/09/30 02:50:32;;;;;;;8.07;2.05;;;11.90;99.90;;;;;;4970486;28;20035;-60
2023/09/30 02:52:58;;;;;;;2.28;0.90;;;11.90;99.90;;;;;;4972335;28;20049;-60
2023/09/30 02:55:23;;;;;;;4.38;1.73;;;11.90;99.90;;;;;;4984053;28;20053;-60
2023/09/30 02:57:49;;;;;;;2.97;1.50;;;12.00;99.90;;;;;;4990402;28;20121;-60
2023/09/30 03:00:25;;;;;;;7.85;1.65;;;11.90;99.90;;;;;;4989353;28;20044;-60
2023/09/30 03:02:56;;;;;;;6.18;1.30;;;12.00;99.90;;;;;;4971972;28;20118;-60
2023/09/30 03:05:23;;;;;;;3.83;1.50;;;12.00;99.90;;;;;;4969316;28;20569;-60
2023/09/30 03:07:52;;;;;;;4.50;1.35;;;12.10;99.90;;;;;;4969935;28;20054;-59
2023/09/30 03:10:20;;;;;;;8.82;1.63;;;12.10;99.90;;;;;;4950539;29;20097;-60
2023/09/30 03:12:48;;;;;;;4.28;1.42;;;12.10;99.90;;;;;;4966351;28;20043;-60
2023/09/30 03:15:15;;;;;;;5.20;1.50;;;12.10;99.90;;;;;;4951996;28;20134;-60
2023/09/30 03:17:41;;;;;;;5.45;1.58;;;12.00;99.90;;;;;;4966878;28;20102;-60
2023/09/30 03:20:11;;;;;;;2.95;1.38;;;12.00;99.90;;;;;;4951271;28;20039;-60
2023/09/30 03:22:40;;;;;;;4.10;1.95;;;12.00;99.90;;;;;;4951633;28;20049;-60
2023/09/30 03:25:07;;;;;;;4.95;1.85;;;12.00;99.90;;;;;;4951772;28;20051;-60
2023/09/30 03:27:34;;;;;;;5.18;1.73;;;12.00;99.90;;;;;;4951029;28;20062;-60
2023/09/30 03:30:01;;;;;;;5.40;1.23;;;12.00;99.90;;;;;;4950336;28;20043;-59
2023/09/30 03:32:27;;;;;;;2.00;1.08;;;12.00;99.90;;;;;;4968357;28;20050;-60
2023/09/30 03:34:53;;;;;;;4.15;1.38;;;12.00;99.90;;;;;;4970190;28;20049;-60
2023/09/30 03:37:19;;;;;;;6.47;1.45;;;11.90;99.90;;;;;;4970695;28;20035;-60
2023/09/30 03:39:49;;;;;;;4.82;1.67;;;11.90;99.90;;;;;;4954807;28;20059;-60
2023/09/30 03:42:14;;;;;;;;;;;11.90;99.90;;;;;;4954481;28;20053;-60
2023/09/30 03:44:41;;;;;;;5.88;1.63;;;11.90;99.90;;;;;;4969190;28;20302;-60
2023/09/30 03:47:08;;;;;;;2.25;1.10;;;11.90;99.90;;;;;;4968739;28;20051;-60
2023/09/30 03:49:34;;;;;;;3.53;1.55;;;11.90;99.90;;;;;;4969288;28;20068;-59
2023/09/30 03:52:01;;;;;;;6.22;1.55;;;11.90;99.90;;;;;;4969815;28;20046;-60
2023/09/30 03:54:27;;;;;;;5.97;1.48;;;11.90;99.90;;;;;;4975342;28;20096;-59
2023/09/30 03:56:53;;;;;;;3.45;1.40;;;11.90;99.90;;;;;;4990020;28;20074;-59
2023/09/30 03:59:19;;;;;;;6.38;1.95;;;11.90;99.90;;;;;;4970439;28;20035;-59
2023/09/30 04:01:47;;;;;;;6.68;1.92;;;11.90;99.90;;;;;;4969865;28;20053;-60
2023/09/30 04:04:13;;;;;;;3.42;1.15;;;11.90;99.90;;;;;;4969113;28;20043;-59
2023/09/30 04:06:39;;;;;;;4.90;1.52;;;11.90;99.90;;;;;;4970133;28;20046;-59
2023/09/30 04:09:12;;;;;;;6.22;2.03;;;11.90;99.90;;;;;;4969686;28;20101;-60
2023/09/30 04:11:38;;;;;;;6.53;2.15;;;11.90;99.90;;;;;;4969241;28;20074;-60
2023/09/30 04:14:07;;;;;;;3.65;1.50;;;12.00;99.90;;;;;;4970232;28;20566;-60
2023/09/30 04:16:33;;;;;;;3.50;1.40;;;12.00;99.90;;;;;;4968587;28;20042;-60
2023/09/30 04:19:00;;;;;;;6.03;1.95;;;12.00;99.90;;;;;;4969105;28;20043;-60
2023/09/30 04:21:28;;;;;;;3.10;1.60;;;12.00;99.90;;;;;;4970052;28;20077;-60
2023/09/30 04:23:54;;;;;;;4.03;1.77;;;11.90;99.90;;;;;;4969247;28;20047;-60
2023/09/30 04:26:20;;;;;;;3.80;1.58;;;11.90;99.90;;;;;;4969047;28;20064;-60
2023/09/30 04:28:46;;;;;;;5.20;2.65;;;11.90;99.90;;;;;;4969975;28;20407;-59
2023/09/30 04:31:12;;;;;;;4.60;2.28;;;11.90;99.90;;;;;;4968486;28;20039;-59
2023/09/30 04:33:39;;;;;;;4.05;1.90;;;11.80;99.90;;;;;;4952354;28;20049;-59
2023/09/30 04:36:08;;;;;;;3.20;1.40;;;11.80;99.90;;;;;;4954257;28;20047;-59
2023/09/30 04:38:37;;;;;;;4.05;2.17;;;11.80;99.90;;;;;;4953852;28;20125;-60
2023/09/30 04:41:03;;;;;;;5.53;1.83;;;11.80;99.90;;;;;;4969798;28;20042;-59
2023/09/30 04:43:29;;;;;;;3.70;2.00;;;11.70;99.90;;;;;;4969190;28;20122;-59
2023/09/30 04:45:56;;;;;;;5.63;1.95;;;11.70;99.90;;;;;;4968539;28;20157;-59
2023/09/30 04:48:26;;;;;;;4.65;2.10;;;11.70;99.90;;;;;;4968542;28;20042;-59
2023/09/30 04:50:51;;;;;;;3.85;2.10;;;11.70;99.90;;;;;;4967892;28;20090;-59
2023/09/30 04:53:18;;;;;;;9.07;2.35;;;11.60;99.90;;;;;;4970437;28;20051;-59
2023/09/30 04:55:44;;;;;;;12.75;2.35;;;11.60;99.90;;;;;;4967785;28;20055;-59
2023/09/30 04:58:11;;;;;;;6.70;2.50;;;11.60;99.90;;;;;;4967127;28;20085;-59
2023/09/30 05:00:39;;;;;;;8.50;2.25;;;11.70;99.90;;;;;;4952213;28;20046;-60
2023/09/30 05:03:05;;;;;;;8.60;2.28;;;11.70;99.90;;;;;;4969313;28;20047;-59
2023/09/30 05:05:31;;;;;;;6.38;2.35;;;11.70;99.90;;;;;;4967808;28;20050;-59
2023/09/30 05:07:57;;;;;;;6.75;2.80;;;11.60;99.90;;;;;;4969331;28;20047;-59
2023/09/30 05:10:24;;;;;;;4.20;2.40;;;11.60;99.90;;;;;;4968055;28;20043;-59
2023/09/30 05:12:53;;;;;;;6.18;3.38;;;11.60;99.90;;;;;;4967472;28;20574;-59
2023/09/30 05:15:21;;;;;;;4.30;2.13;;;11.60;99.90;;;;;;4967969;28;20043;-59
2023/09/30 05:17:48;;;;;;;8.02;2.97;;;11.50;99.90;;;;;;4952193;28;20093;-59
2023/09/30 05:20:17;;;;;;;5.60;2.70;;;11.50;99.90;;;;;;4968192;28;20104;-60
2023/09/30 05:22:46;;;;;;;6.88;3.10;;;11.50;99.90;;;;;;4967955;28;20546;-59
2023/09/30 05:25:16;;;;;;;6.03;2.53;;;11.40;99.90;;;;;;4932361;28;20044;-59
2023/09/30 05:27:42;;;;;;;3.85;2.53;;;11.40;99.90;;;;;;4949742;28;20085;-59
2023/09/30 05:30:10;;;;;;;4.70;2.17;;;11.40;99.90;;;;;;4932965;29;20035;-59
2023/09/30 05:32:38;;;;;;;4.80;1.88;;;11.30;99.90;;;;;;4965211;28;20422;-59
2023/09/30 05:35:06;;;;;;;6.47;2.53;;;11.20;99.90;;;;;;4969002;28;20118;-59
2023/09/30 05:37:31;;;;;;;4.80;2.05;;;11.20;99.90;;;;;;4969039;28;20394;-59
2023/09/30 05:39:57;;;;;;;6.45;2.70;;;11.20;99.90;;;;;;4966680;28;20146;-59
2023/09/30 05:42:23;;;;;;;4.72;2.17;;;11.10;99.90;;;;;;4967501;28;20047;-59
2023/09/30 05:44:49;;;;;;;6.47;2.22;;;11.10;99.90;;;;;;4951537;28;20045;-59
2023/09/30 05:47:17;;;;;;;7.95;2.75;;;11.10;99.90;;;;;;4951046;28;20122;-60
2023/09/30 05:49:43;;;;;;;8.65;2.53;;;11.10;99.90;;;;;;4968968;28;20034;-60
2023/09/30 05:52:09;;;;;;;5.35;2.70;;;11.10;99.90;;;;;;4970671;28;20054;-60
2023/09/30 05:54:35;;;;;;;6.32;2.67;;;11.10;99.90;;;;;;4980102;28;20038;-60
2023/09/30 05:57:02;;;;;;;7.22;2.75;;;11.10;99.90;;;;;;4990289;28;20386;-60
2023/09/30 05:59:29;;;;;;;4.13;2.13;;;11.10;99.90;;;;;;4990935;28;20635;-60
2023/09/30 06:01:54;;;;;;;7.68;3.05;;;11.10;99.90;;;;;;4989467;28;20536;-60
2023/09/30 06:04:20;;;;;;;8.52;2.53;;;11.10;99.90;;;;;;4990292;28;20046;-60
2023/09/30 06:06:46;;;;;;;9.95;3.33;;;11.10;99.90;;;;;;4990201;28;20053;-60
2023/09/30 06:09:12;;;;;;;6.95;3.45;;;11.10;99.90;;;;;;4978444;28;20039;-60
2023/09/30 06:11:41;;;;;;;7.93;2.75;;;11.10;99.90;;;;;;4970975;28;20043;-60
2023/09/30 06:14:06;;;;;;;5.95;2.67;;;11.20;99.90;;;;;;4971494;28;20058;-60
2023/09/30 06:16:34;;;;;;;5.82;2.58;;;11.20;99.90;;;;;;4970655;28;20043;-60
2023/09/30 06:19:01;;;;;;;12.30;3.17;;;11.20;99.90;;;;;;4971906;28;20043;-60
2023/09/30 06:21:29;;;;;;;5.60;2.63;;;11.30;99.90;;;;;;4970004;28;20499;-60
2023/09/30 06:23:55;;;;;;;9.15;2.55;;;11.30;99.90;;;;;;4970631;28;20050;-60
2023/09/30 06:26:21;;;;;;;6.25;2.90;;;11.40;99.90;;;;;;4970801;28;20418;-60
2023/09/30 06:28:47;;;;;;;6.07;2.70;;;11.40;99.90;;;;;;4959869;28;20043;-60
2023/09/30 06:31:15;;;;;;;6.30;2.55;;;11.50;99.90;;;;;;4971992;28;20439;-60
2023/09/30 06:33:41;;;;;;;7.50;2.72;;;11.50;99.90;;;;;;4971760;28;20046;-60
2023/09/30 06:36:13;;;;;;;7.82;3.05;;;11.60;99.90;;;;;;4970076;28;20125;-60
2023/09/30 06:38:41;;;;;;;10.40;3.28;;;11.60;99.90;;;;;;4970002;28;20089;-60
2023/09/30 06:41:08;;;;;;;6.72;2.03;;;11.70;99.90;;;;;;4970267;28;20142;-60
2023/09/30 06:43:35;;;;;;;6.07;2.35;;;11.70;99.90;;;;;;4953714;28;20645;-60
2023/09/30 06:46:10;;;;;;;6.25;2.78;;;11.80;99.90;;;;;;4971368;28;20051;-60
2023/09/30 06:48:37;;;;;;;4.95;2.92;;;11.90;99.90;;;;;;4971439;28;20075;-60
2023/09/30 06:51:03;;;;;;;10.13;2.80;;;11.90;99.90;;;;;;4969659;28;20116;-60
2023/09/30 06:53:28;;;;;;;8.18;3.20;;;12.00;99.90;;;;;;4973451;28;20470;-60
2023/09/30 06:55:55;;;;;;;9.23;2.67;;;12.00;99.90;;;;;;4986542;28;20084;-60
2023/09/30 06:58:21;;;;;;;6.93;2.70;;;12.10;99.90;;;;;;4989507;28;20094;-60
2023/09/30 07:00:48;;;;;;;7.18;2.63;;;12.20;99.90;;;;;;4989303;28;20046;-60
2023/09/30 07:03:15;;;;;;;3.60;1.92;;;12.30;99.90;;;;;;4971528;28;20225;-60
2023/09/30 07:05:41;;;;;;;5.90;3.13;;;12.40;99.90;;;;;;4989238;28;20053;-60
2023/09/30 07:08:07;;;;;;;5.13;2.42;;;12.50;99.90;;;;;;4986960;28;20050;-60
2023/09/30 07:10:33;;;;;;;10.43;4.03;;;12.60;99.90;;;;;;4969619;28;20084;-60
2023/09/30 07:13:06;;;;;;;7.80;2.90;;;12.70;99.90;;;;;;4953747;28;20124;-60
2023/09/30 07:15:32;;;;;;;7.28;3.05;;;12.80;99.90;;;;;;4971103;28;20411;-60
2023/09/30 07:17:58;;;;;;;10.35;3.05;;;13.00;99.90;;;;;;4970570;28;20047;-60
2023/09/30 07:20:24;;;;;;;7.75;2.88;;;13.00;99.90;;;;;;4969745;28;20042;-60
2023/09/30 07:22:51;;;;;;;5.13;2.72;;;13.20;99.90;;;;;;4969833;28;20046;-60
2023/09/30 07:25:17;;;;;;;5.82;2.70;;;13.30;99.90;;;;;;4969025;28;20047;-60
2023/09/30 07:27:46;;;;;;;7.65;3.10;;;13.40;99.90;;;;;;4969529;28;20042;-60
2023/09/30 07:30:14;;;;;;;5.60;2.30;;;13.60;99.90;;;;;;4969603;28;20122;-60
2023/09/30 07:32:44;;;;;;;5.97;3.40;;;13.70;99.90;;;;;;4970232;28;20042;-60
2023/09/30 07:35:10;;;;;;;;;;;13.80;99.90;;;;;;4971488;28;20050;-60
2023/09/30 07:37:36;;;;;;;8.85;3.13;;;13.90;99.90;;;;;;4969346;28;20124;-60
2023/09/30 07:40:02;;;;;;;4.25;2.30;;;14.00;99.90;;;;;;4968691;28;20093;-60
2023/09/30 07:42:28;;;;;;;7.50;2.97;;;14.10;99.90;;;;;;4969370;28;20078;-60
2023/09/30 07:44:54;;;;;;;8.77;2.53;;;14.30;99.90;;;;;;4968739;28;20082;-60
2023/09/30 07:47:20;;;;;;;8.30;3.20;;;14.40;99.90;;;;;;4970668;28;20046;-60
2023/09/30 07:49:46;;;;;;;6.38;2.90;;;14.50;99.90;;;;;;4969481;28;20042;-60
2023/09/30 07:52:12;;;;;;;8.20;3.15;;;14.60;99.90;;;;;;4969712;28;20030;-60
2023/09/30 07:54:38;;;;;;;6.22;3.28;;;14.80;99.90;;;;;;4979215;28;20556;-60
2023/09/30 07:57:04;;;;;;;12.27;3.42;;;14.90;99.90;;;;;;4988535;28;20046;-60
2023/09/30 07:59:30;;;;;;;7.47;3.47;;;15.10;99.90;;;;;;4989345;28;20125;-60
2023/09/30 08:01:57;;;;;;;8.52;3.10;;;15.30;99.90;;;;;;4988524;28;20129;-60
2023/09/30 08:04:22;;;;;;;8.23;2.97;;;15.50;99.90;;;;;;4986889;28;20057;-60
2023/09/30 08:06:50;;;;;;;6.93;3.38;;;15.60;99.90;;;;;;4969145;28;20415;-60
2023/09/30 08:09:18;;;;;;;5.07;3.00;;;15.90;99.90;;;;;;4968992;28;20765;-60
2023/09/30 08:11:44;;;;;;;5.95;2.90;;;16.10;99.90;;;;;;4970084;28;20053;-60
2023/09/30 08:14:10;;;;;;;5.70;2.85;;;16.40;99.90;;;;;;4967747;28;20085;-60
2023/09/30 08:16:36;;;;;;;5.80;2.70;;;16.90;99.90;;;;;;4969102;28;20495;-60
2023/09/30 08:19:03;;;;;;;5.70;2.50;;;17.50;99.90;;;;;;4969154;28;20120;-60
2023/09/30 08:21:30;;;;;;;5.80;2.13;;;18.00;99.90;;;;;;4968202;28;20126;-60
2023/09/30 08:23:59;;;;;;;6.45;2.63;;;18.50;99.90;;;;;;4969950;28;20179;-60
2023/09/30 08:26:25;;;;;;;4.82;2.72;;;18.80;99.90;;;;;;4968737;28;20034;-60
2023/09/30 08:28:51;;;;;;;6.07;2.38;;;19.10;99.90;;;;;;4969389;28;20487;-60
2023/09/30 08:31:17;;;;;;;9.90;3.30;;;19.40;99.90;;;;;;4969892;28;20881;-61
2023/09/30 08:33:45;;;;;;;8.98;3.08;;;19.70;99.90;;;;;;4952754;28;20050;-61
2023/09/30 08:36:11;;;;;;;7.40;3.38;;;20.00;99.90;;;;;;4969457;28;20437;-61
2023/09/30 08:38:38;;;;;;;12.55;2.80;;;20.00;99.90;;;;;;4969550;28;20051;-61
2023/09/30 08:41:04;;;;;;;12.18;3.53;;;20.00;99.90;;;;;;4969362;28;20039;-61
2023/09/30 08:43:31;;;;;;;10.80;3.63;;;20.20;99.90;;;;;;4968668;28;20042;-61
2023/09/30 08:46:02;;;;;;;8.05;3.35;;;20.50;99.90;;;;;;4968427;28;20047;-61
2023/09/30 08:48:30;;;;;;;6.70;2.70;;;20.80;99.90;;;;;;4967804;28;20559;-61
2023/09/30 08:50:57;;;;;;;4.80;2.13;;;21.10;99.90;;;;;;4968352;28;20046;-61
2023/09/30 08:53:24;;;;;;;6.65;2.67;;;21.30;99.90;;;;;;4972819;28;20035;-61
2023/09/30 08:55:54;;;;;;;5.55;2.70;;;21.60;99.90;;;;;;4983825;28;20044;-61
2023/09/30 08:58:24;;;;;;;6.10;2.35;;;21.90;99.90;;;;;;4987943;28;20042;-61
2023/09/30 09:00:50;;;;;;;5.40;2.10;;;22.30;99.90;;;;;;4983492;28;20043;-60
2023/09/30 09:03:19;;;;;;;5.93;2.00;;;22.50;99.90;;;;;;4968956;28;20061;-59
2023/09/30 09:05:45;;;;;;;5.10;2.10;;;22.60;99.90;;;;;;4968479;28;20445;-59
2023/09/30 09:08:10;;;;;;;5.72;2.60;;;22.90;99.90;;;;;;4967189;28;20099;-60
2023/09/30 09:10:54;;;;;;;7.53;2.58;;;23.20;99.90;;;;;;4968399;28;20084;-60
2023/09/30 09:13:20;;;;;;;6.95;2.83;;;23.70;99.90;;;;;;4968043;28;20039;-60
2023/09/30 09:15:46;;;;;;;6.05;2.20;;;24.10;99.90;;;;;;4952263;28;20050;-60
2023/09/30 09:18:14;;;;;;;7.20;2.58;;;24.40;99.90;;;;;;4967705;28;20172;-60
2023/09/30 09:20:40;;;;;;;3.42;1.63;;;24.80;99.90;;;;;;4968329;28;20074;-60
2023/09/30 09:23:07;;;;;;;5.75;1.98;;;24.70;99.90;;;;;;4968547;28;20079;-60
2023/09/30 09:25:38;;;;;;;7.20;2.28;;;24.50;99.90;;;;;;4967314;28;20440;-60
2023/09/30 09:28:04;;;;;;;4.32;2.08;;;24.60;99.90;;;;;;4968150;28;20475;-60
2023/09/30 09:30:30;;;;;;;3.60;1.90;;;25.00;99.90;;;;;;4967124;28;20078;-60
2023/09/30 09:33:05;;;;;;;4.97;2.00;;;25.30;99.90;;;;;;4967877;28;20039;-60
2023/09/30 09:35:33;;;;;;;3.63;1.40;;;25.40;99.90;;;;;;4969181;28;20125;-60
2023/09/30 09:38:08;;;;;;;3.83;1.27;;;25.10;99.90;;;;;;4967025;28;20137;-60
2023/09/30 09:40:40;;;;;;;3.30;1.40;;;24.90;99.90;;;;;;4967896;28;20058;-60
2023/09/30 09:43:06;;;;;;;4.25;1.38;;;24.80;99.90;;;;;;4983875;28;20043;-60
2023/09/30 09:45:34;;;;;;;1.83;1.23;;;24.90;99.90;;;;;;4966924;28;20453;-60
2023/09/30 09:48:01;;;;;;;5.07;1.58;;;25.10;99.90;;;;;;4967859;28;20043;-60
2023/09/30 09:50:26;;;;;;;2.85;0.98;;;25.20;99.90;;;;;;4967608;28;20046;-60
2023/09/30 09:52:55;;;;;;;4.82;1.27;;;25.40;99.90;;;;;;4972549;28;20045;-60
2023/09/30 09:55:22;;;;;;;4.20;1.80;;;25.80;99.90;;;;;;4975115;28;20414;-60
2023/09/30 09:57:49;;;;;;;3.67;1.27;;;26.20;99.90;;;;;;4967190;28;20485;-60
2023/09/30 10:00:25;;;;;;;3.95;1.75;;;26.50;99.90;;;;;;4968715;28;20051;-60
2023/09/30 10:02:51;;;;;;;4.43;1.50;;;26.60;99.90;;;;;;4967274;28;20046;-60
2023/09/30 10:05:18;;;;;;;8.00;2.00;;;26.80;99.90;;;;;;4968083;28;20414;-60
2023/09/30 10:07:53;;;;;;;10.23;2.28;;;26.80;99.90;;;;;;4967627;28;20487;-60
2023/09/30 10:10:21;;;;;;;5.28;1.95;;;26.70;99.90;;;;;;4966784;28;20054;-60
2023/09/30 10:12:47;;;;;;;5.78;1.85;;;26.80;99.90;;;;;;4967421;28;20043;-60
2023/09/30 10:15:25;;;;;;;3.10;0.98;;;26.80;99.90;;;;;;4967625;28;20398;-61
2023/09/30 10:18:11;;;;;;;4.88;1.40;;;26.90;99.90;;;;;;4968622;28;20097;-61
2023/09/30 10:20:44;;;;;;;2.67;1.10;;;26.60;99.90;;;;;;4967971;28;20077;-61
2023/09/30 10:23:32;;;;;;;4.40;1.02;;;26.80;99.90;;;;;;4967497;28;20050;-61
2023/09/30 10:26:14;;;;;;;2.45;0.70;;;27.10;99.90;;;;;;4966969;28;20100;-61
2023/09/30 10:28:49;;;;;;;2.15;0.70;;;26.60;99.90;;;;;;4967221;28;20062;-61
2023/09/30 10:31:25;;;;;;;3.13;0.68;;;26.20;99.90;;;;;;4968548;28;20051;-60
2023/09/30 10:34:00;;;;;;;1.27;0.45;;;25.80;99.90;;;;;;4966679;28;20148;-61
2023/09/30 10:36:30;;;;;;;3.55;0.70;;;25.10;99.90;;;;;;4968499;28;20049;-60
2023/09/30 10:38:56;;;;;;;1.98;0.63;;;24.10;99.90;;;;;;4970119;28;20510;-60
2023/09/30 10:41:47;;;;;;;2.90;0.40;;;23.20;99.90;;;;;;4969876;28;20133;-60
2023/09/30 10:44:29;;;;;;;0.95;0.50;;;22.30;99.90;;;;;;4971594;28;20054;-60
2023/09/30 10:47:00;;;;;;;2.53;0.50;;;21.90;99.90;;;;;;4971306;28;20055;-60
2023/09/30 10:49:26;;;;;;;2.72;0.57;;;22.20;99.90;;;;;;4970589;28;20502;-60
2023/09/30 10:51:59;;;;;;;1.50;0.55;;;22.40;99.90;;;;;;4971696;28;20445;-60
2023/09/30 10:54:33;;;;;;;2.30;0.68;;;22.20;99.90;;;;;;4970375;28;20054;-60
2023/09/30 10:56:59;;;;;;;0.73;0.20;;;21.80;99.90;;;;;;4970269;28;20074;-60
2023/09/30 10:59:30;;;;;;;3.22;0.65;;;22.00;99.90;;;;;;4971685;28;20066;-60
2023/09/30 11:01:56;;;;;;;2.38;0.63;;;22.70;99.90;;;;;;4969369;28;20100;-61
2023/09/30 11:04:22;;;;;;;1.73;0.57;;;23.40;99.90;;;;;;4971320;28;20047;-60
2023/09/30 11:06:49;;;;;;;1.08;0.28;;;23.70;99.90;;;;;;4954285;28;20043;-61
2023/09/30 11:09:21;;;;;;;2.25;0.30;;;23.90;99.90;;;;;;4969537;28;20045;-60
2023/09/30 11:11:52;;;;;;;2.45;0.43;;;24.30;99.90;;;;;;4971454;28;20043;-61
2023/09/30 11:14:24;;;;;;;1.00;0.63;;;24.50;99.90;;;;;;4951406;28;20379;-61
2023/09/30 11:16:52;;;;;;;2.22;0.38;;;24.80;99.90;;;;;;4969217;28;20081;-61
2023/09/30 11:19:20;;;;;;;1.80;0.60;;;25.30;99.90;;;;;;4970055;28;20058;-61
2023/09/30 11:21:49;;;;;;;1.33;0.50;;;25.50;99.90;;;;;;4969975;28;20108;-61
2023/09/30 11:24:15;;;;;;;2.95;0.52;;;25.00;99.90;;;;;;4953360;28;20049;-61
2023/09/30 11:26:41;;;;;;;1.25;0.30;;;24.40;99.90;;;;;;4970461;28;20043;-60
2023/09/30 11:29:11;;;;;;;0.98;0.20;;;24.10;99.90;;;;;;4969331;28;20078;-61
2023/09/30 11:31:40;;;;;;;1.30;0.28;;;23.70;99.90;;;;;;4970968;28;20065;-61
2023/09/30 11:34:07;;;;;;;1.63;0.30;;;23.50;99.90;;;;;;4969589;28;20054;-61
2023/09/30 11:36:39;;;;;;;1.65;0.30;;;23.50;99.90;;;;;;4968909;28;20053;-61
2023/09/30 11:39:05;;;;;;;3.00;0.70;;;23.50;99.90;;;;;;4953133;28;20197;-61
2023/09/30 11:41:38;;;;;;;3.53;0.40;;;23.60;99.90;;;;;;4969319;28;20141;-61
2023/09/30 11:44:10;;;;;;;2.00;0.50;;;23.50;99.90;;;;;;4968770;28;20471;-61
2023/09/30 11:46:55;;;;;;;2.42;0.20;;;23.60;99.90;;;;;;4970772;28;20047;-61
2023/09/30 11:49:32;;;;;;;2.97;0.55;;;23.50;99.10;;;;;;4953310;28;20039;-61
2023/09/30 11:52:03;;;;;;;2.35;0.52;;;23.40;98.30;;;;;;4969546;28;20126;-60
2023/09/30 11:54:39;;;;;;;2.90;0.70;;;23.30;98.90;;;;;;4980246;28;20414;-61
2023/09/30 11:57:05;;;;;;;0.82;0.40;;;23.40;97.70;;;;;;4968753;28;20130;-61
2023/09/30 11:59:31;;;;;;;2.08;0.40;;;23.40;97.80;;;;;;4969191;28;20125;-61
2023/09/30 12:01:58;;;;;;;1.02;0.38;;;23.40;97.10;;;;;;4969387;28;20161;-60
2023/09/30 12:04:24;;;;;;;2.40;0.65;;;23.50;97.30;;;;;;4952516;28;20042;-61
2023/09/30 12:06:50;;;;;;;0.77;0.28;;;23.40;97.20;;;;;;4969165;28;20129;-62
2023/09/30 12:09:22;;;;;;;2.63;0.43;;;23.40;96.70;;;;;;4969184;28;20135;-61
2023/09/30 12:11:51;;;;;;;1.45;0.50;;;23.40;95.90;;;;;;4968734;28;20046;-61
2023/09/30 12:14:17;;;;;;;3.03;0.30;;;23.40;95.80;;;;;;4968982;28;20039;-61
2023/09/30 12:16:47;;;;;;;2.53;0.32;;;23.50;96.20;;;;;;4969470;28;20050;-61
2023/09/30 12:19:15;;;;;;;1.25;0.40;;;23.50;95.90;;;;;;4969760;28;20438;-61
2023/09/30 12:21:42;;;;;;;0.90;0.20;;;23.30;95.90;;;;;;4968964;28;20078;-61
2023/09/30 12:24:13;;;;;;;3.55;0.30;;;23.30;96.20;;;;;;4968773;28;20055;-60
2023/09/30 12:26:41;;;;;;;2.80;0.30;;;23.20;95.90;;;;;;4968337;28;20050;-61
2023/09/30 12:29:09;;;;;;;2.58;0.50;;;23.10;96.20;;;;;;4968840;28;20055;-61
2023/09/30 12:31:34;;;;;;;1.90;0.30;;;23.10;96.60;;;;;;4968732;28;20051;-61
2023/09/30 12:34:00;;;;;;;2.00;0.93;;;23.00;96.50;;;;;;4968153;28;20050;-61
2023/09/30 12:36:26;;;;;;;1.52;0.50;;;22.80;97.10;;;;;;4968640;28;20104;-61
2023/09/30 12:38:52;;;;;;;0.65;0.20;;;22.70;97.50;;;;;;4967750;28;20077;-61
2023/09/30 12:41:19;;;;;;;1.58;0.30;;;22.90;97.90;;;;;;4968807;28;20053;-61
2023/09/30 12:43:45;;;;;;;1.98;0.57;;;23.10;97.60;;;;;;4968445;28;20043;-61
2023/09/30 12:46:13;;;;;;;2.63;0.60;;;23.20;97.20;;;;;;4951783;28;20039;-61
2023/09/30 12:48:40;;;;;;;2.38;0.70;;;23.20;97.50;;;;;;4969718;28;20514;-61
2023/09/30 12:51:06;;;;;;;2.40;0.63;;;23.30;97.60;;;;;;4969660;28;20047;-61